createdAt,value
2023-03-29T00:00:45.304Z,14.70
2023-03-29T00:03:17.229Z,14.50
2023-03-29T00:05:48.289Z,14.20
2023-03-29T00:08:22.028Z,14.40
2023-03-29T00:10:54.131Z,14.50
2023-03-29T00:13:26.736Z,14.80
2023-03-29T00:15:57.747Z,14.40
2023-03-29T00:18:28.662Z,14.30
2023-03-29T00:21:00.610Z,14.60
2023-03-29T00:23:31.738Z,14.50
2023-03-29T00:26:02.692Z,14.40
2023-03-29T00:28:33.801Z,14.30
2023-03-29T00:31:17.070Z,14.30
2023-03-29T00:33:48.085Z,14.10
2023-03-29T00:36:18.983Z,14.10
2023-03-29T00:38:49.832Z,14.00
2023-03-29T00:41:21.661Z,14.20
2023-03-29T00:44:02.169Z,14.50
2023-03-29T00:46:34.971Z,14.30
2023-03-29T00:49:13.960Z,14.30
2023-03-29T00:51:45.864Z,14.60
2023-03-29T00:54:19.611Z,14.40
2023-03-29T00:56:51.655Z,14.50
2023-03-29T00:59:29.771Z,14.30
2023-03-29T01:02:05.431Z,14.30
2023-03-29T01:04:45.847Z,14.30
2023-03-29T01:07:21.963Z,14.50
2023-03-29T01:10:13.434Z,14.60
2023-03-29T01:12:50.330Z,14.60
2023-03-29T01:15:26.541Z,14.70
2023-03-29T01:17:58.505Z,14.60
2023-03-29T01:20:53.895Z,14.00
2023-03-29T01:23:51.202Z,13.90
2023-03-29T01:26:47.126Z,14.40
2023-03-29T01:29:41.954Z,14.10
2023-03-29T01:32:31.102Z,14.20
2023-03-29T01:35:32.668Z,14.60
2023-03-29T01:38:16.323Z,14.60
2023-03-29T01:40:47.333Z,14.20
2023-03-29T01:43:39.828Z,14.60
2023-03-29T01:46:33.265Z,14.00
2023-03-29T01:49:57.768Z,14.20
2023-03-29T01:52:53.870Z,13.90
2023-03-29T01:55:35.027Z,14.30
2023-03-29T01:58:08.545Z,14.10
2023-03-29T02:00:41.658Z,14.00
2023-03-29T02:03:14.963Z,14.10
2023-03-29T02:05:46.565Z,14.30
2023-03-29T02:08:19.645Z,14.00
2023-03-29T02:10:51.997Z,14.00
2023-03-29T02:13:23.232Z,14.20
2023-03-29T02:15:54.731Z,14.00
2023-03-29T02:18:26.251Z,14.00
2023-03-29T02:20:59.040Z,14.40
2023-03-29T02:23:46.725Z,13.60
2023-03-29T02:26:19.045Z,13.20
2023-03-29T02:28:51.682Z,13.80
2023-03-29T02:31:40.006Z,13.90
2023-03-29T02:34:21.471Z,13.80
2023-03-29T02:36:58.855Z,14.10
2023-03-29T02:39:33.735Z,14.10
2023-03-29T02:42:06.247Z,14.00
2023-03-29T02:44:40.854Z,14.00
2023-03-29T02:47:35.921Z,14.00
2023-03-29T02:50:08.679Z,14.10
2023-03-29T02:52:44.282Z,14.00
2023-03-29T02:55:18.895Z,13.90
2023-03-29T02:57:49.801Z,13.50
2023-03-29T03:00:23.100Z,13.60
2023-03-29T03:02:55.328Z,13.70
2023-03-29T03:05:26.303Z,13.70
2023-03-29T03:07:58.577Z,13.70
2023-03-29T03:10:29.519Z,13.70
2023-03-29T03:13:00.892Z,13.80
2023-03-29T03:15:35.797Z,14.10
2023-03-29T03:18:07.039Z,14.30
2023-03-29T03:20:37.993Z,13.60
2023-03-29T03:23:09.691Z,13.90
2023-03-29T03:25:40.577Z,13.70
2023-03-29T03:28:11.522Z,13.70
2023-03-29T03:30:42.393Z,13.70
2023-03-29T03:33:13.336Z,13.90
2023-03-29T03:35:46.397Z,13.80
2023-03-29T03:38:17.397Z,14.20
2023-03-29T03:40:55.240Z,14.10
2023-03-29T03:43:27.072Z,14.20
2023-03-29T03:45:58.134Z,14.50
2023-03-29T03:48:29.100Z,14.70
2023-03-29T03:51:00.258Z,14.50
2023-03-29T03:53:31.439Z,14.60
2023-03-29T03:56:08.642Z,14.70
2023-03-29T03:58:39.707Z,14.90
2023-03-29T04:01:10.623Z,15.00
2023-03-29T04:03:41.631Z,14.10
2023-03-29T04:06:12.617Z,14.60
2023-03-29T04:08:43.716Z,14.10
2023-03-29T04:11:15.327Z,14.60
2023-03-29T04:13:46.749Z,14.80
2023-03-29T04:16:17.665Z,15.10
2023-03-29T04:18:48.700Z,15.30
2023-03-29T04:21:21.378Z,15.10
2023-03-29T04:23:52.377Z,15.20
2023-03-29T04:26:23.259Z,15.30
2023-03-29T04:28:54.128Z,14.90
2023-03-29T04:31:25.162Z,14.80
2023-03-29T04:33:57.786Z,14.80
2023-03-29T04:36:30.984Z,14.80
2023-03-29T04:39:01.935Z,15.00
2023-03-29T04:41:34.291Z,15.00
2023-03-29T04:44:06.833Z,15.30
2023-03-29T04:46:40.289Z,15.40
2023-03-29T04:49:11.529Z,15.00
2023-03-29T04:51:42.511Z,15.10
2023-03-29T04:54:13.600Z,15.00
2023-03-29T04:56:44.652Z,14.90
2023-03-29T04:59:15.519Z,15.00
2023-03-29T05:01:46.738Z,15.10
2023-03-29T05:04:18.453Z,14.90
2023-03-29T05:06:49.425Z,15.10
2023-03-29T05:09:21.134Z,14.90
2023-03-29T05:11:52.376Z,14.90
2023-03-29T05:14:23.507Z,15.00
2023-03-29T05:16:54.393Z,15.00
2023-03-29T05:19:25.370Z,15.00
2023-03-29T05:21:56.468Z,15.00
2023-03-29T05:24:27.453Z,15.00
2023-03-29T05:26:58.568Z,15.00
2023-03-29T05:29:29.564Z,14.90
2023-03-29T05:32:00.669Z,15.00
2023-03-29T05:34:31.926Z,15.00
2023-03-29T05:37:03.292Z,15.00
2023-03-29T05:39:36.451Z,15.10
2023-03-29T05:42:12.279Z,15.10
2023-03-29T05:44:43.262Z,15.10
2023-03-29T05:47:14.562Z,15.10
2023-03-29T05:49:46.253Z,15.20
2023-03-29T05:52:17.143Z,15.20
2023-03-29T05:54:48.015Z,15.20
2023-03-29T05:57:19.142Z,15.30
2023-03-29T05:59:50.045Z,15.20
2023-03-29T06:02:21.509Z,15.30
2023-03-29T06:04:54.051Z,15.30
2023-03-29T06:07:25.055Z,15.20
2023-03-29T06:09:55.890Z,15.40
2023-03-29T06:12:26.755Z,15.40
2023-03-29T06:15:03.222Z,15.40
2023-03-29T06:17:34.660Z,15.50
2023-03-29T06:20:10.902Z,15.50
2023-03-29T06:22:42.569Z,15.60
2023-03-29T06:25:15.386Z,15.60
2023-03-29T06:27:46.917Z,15.60
2023-03-29T06:30:19.309Z,15.70
2023-03-29T06:32:50.581Z,15.70
2023-03-29T06:35:21.859Z,15.60
2023-03-29T06:37:53.768Z,15.70
2023-03-29T06:40:24.978Z,15.70
2023-03-29T06:42:59.621Z,15.80
2023-03-29T06:45:37.204Z,15.80
2023-03-29T06:48:08.334Z,15.80
2023-03-29T06:50:39.290Z,15.90
2023-03-29T06:53:10.334Z,15.90
2023-03-29T06:55:41.385Z,15.90
2023-03-29T06:58:12.484Z,16.10
2023-03-29T07:00:43.342Z,16.20
2023-03-29T07:03:20.284Z,16.60
2023-03-29T07:05:52.250Z,16.80
2023-03-29T07:08:23.183Z,16.60
2023-03-29T07:10:54.225Z,16.50
2023-03-29T07:13:26.292Z,16.70
2023-03-29T07:15:57.499Z,16.90
2023-03-29T07:18:28.655Z,17.20
2023-03-29T07:20:59.649Z,16.80
2023-03-29T07:23:30.699Z,16.90
2023-03-29T07:26:02.495Z,16.80
2023-03-29T07:28:34.184Z,16.70
2023-03-29T07:31:11.701Z,16.80
2023-03-29T07:33:42.927Z,16.80
2023-03-29T07:36:15.648Z,16.90
2023-03-29T07:38:46.674Z,16.80
2023-03-29T07:41:17.573Z,16.90
2023-03-29T07:43:50.093Z,16.90
2023-03-29T07:46:21.098Z,16.90
2023-03-29T07:48:52.264Z,17.00
2023-03-29T07:51:23.972Z,17.10
2023-03-29T07:53:55.228Z,17.30
2023-03-29T07:56:26.548Z,17.50
2023-03-29T07:58:57.555Z,17.40
2023-03-29T08:01:28.558Z,17.60
2023-03-29T08:03:59.946Z,17.70
2023-03-29T08:06:30.917Z,17.60
2023-03-29T08:09:01.771Z,17.90
2023-03-29T08:11:32.817Z,17.80
2023-03-29T08:14:03.684Z,18.30
2023-03-29T08:16:34.663Z,18.10
2023-03-29T08:19:05.567Z,17.90
2023-03-29T08:21:36.485Z,17.80
2023-03-29T08:24:07.991Z,17.60
2023-03-29T08:26:38.874Z,17.90
2023-03-29T08:29:10.025Z,18.00
2023-03-29T08:31:41.027Z,18.00
2023-03-29T08:34:11.968Z,17.80
2023-03-29T08:36:43.092Z,18.10
2023-03-29T08:39:13.966Z,18.20
2023-03-29T08:42:17.157Z,18.30
2023-03-29T08:45:10.901Z,18.30
2023-03-29T08:48:32.010Z,18.30
2023-03-29T08:51:11.061Z,18.40
2023-03-29T08:53:52.622Z,18.30
2023-03-29T08:56:27.406Z,18.30
2023-03-29T08:58:59.402Z,18.10
2023-03-29T09:01:35.530Z,18.10
2023-03-29T09:04:18.978Z,18.40
2023-03-29T09:06:50.246Z,18.60
2023-03-29T09:09:25.679Z,18.40
2023-03-29T09:12:11.534Z,18.50
2023-03-29T09:15:49.848Z,18.30
2023-03-29T09:19:02.051Z,18.70
2023-03-29T09:21:46.758Z,18.40
2023-03-29T09:24:37.549Z,18.50
2023-03-29T09:27:24.740Z,18.60
2023-03-29T09:30:17.161Z,18.40
2023-03-29T09:33:05.291Z,18.60
2023-03-29T09:35:50.941Z,18.80
2023-03-29T09:38:23.004Z,19.20
2023-03-29T09:40:59.341Z,19.30
2023-03-29T09:43:38.514Z,19.70
2023-03-29T09:46:44.856Z,19.60
2023-03-29T09:49:23.738Z,19.50
2023-03-29T09:52:01.500Z,19.20
2023-03-29T09:54:32.933Z,19.40
2023-03-29T09:57:04.048Z,19.10
2023-03-29T09:59:36.904Z,19.60
2023-03-29T10:02:13.576Z,19.80
2023-03-29T10:04:44.650Z,19.90
2023-03-29T10:07:20.742Z,19.90
2023-03-29T10:09:52.711Z,19.80
2023-03-29T10:12:23.668Z,19.20
2023-03-29T10:14:55.205Z,19.80
2023-03-29T10:17:34.218Z,19.50
2023-03-29T10:20:09.587Z,20.00
2023-03-29T10:22:49.868Z,19.80
2023-03-29T10:25:27.943Z,20.00
2023-03-29T10:28:15.927Z,20.60
2023-03-29T10:30:54.613Z,20.60
2023-03-29T10:33:31.654Z,20.70
2023-03-29T10:36:07.127Z,20.80
2023-03-29T10:38:38.421Z,20.40
2023-03-29T10:41:21.788Z,21.00
2023-03-29T10:43:53.005Z,20.50
2023-03-29T10:46:31.477Z,20.90
2023-03-29T10:49:16.336Z,21.30
2023-03-29T10:51:51.849Z,21.50
2023-03-29T10:54:24.470Z,21.40
2023-03-29T10:57:04.788Z,20.60
2023-03-29T11:00:02.789Z,21.80
2023-03-29T11:03:20.966Z,21.80
2023-03-29T11:06:04.985Z,21.70
2023-03-29T11:08:52.598Z,21.90
2023-03-29T11:12:15.084Z,22.20
2023-03-29T11:15:34.202Z,22.80
2023-03-29T11:19:03.514Z,22.70
2023-03-29T11:22:28.123Z,23.30
2023-03-29T11:25:08.792Z,23.20
2023-03-29T11:28:06.601Z,22.80
2023-03-29T11:30:59.915Z,23.70
2023-03-29T11:34:22.159Z,23.60
2023-03-29T11:37:17.400Z,23.00
2023-03-29T11:40:07.309Z,23.70
2023-03-29T11:42:45.959Z,23.90
2023-03-29T11:45:28.525Z,23.60
2023-03-29T11:48:02.922Z,23.60
2023-03-29T11:51:00.850Z,22.50
2023-03-29T11:53:51.760Z,22.60
2023-03-29T11:56:40.461Z,22.80
2023-03-29T11:59:25.040Z,23.20
2023-03-29T12:02:20.827Z,23.30
2023-03-29T12:04:57.407Z,23.50
2023-03-29T12:07:36.887Z,23.50
2023-03-29T12:10:24.002Z,23.70
2023-03-29T12:13:03.848Z,23.90
2023-03-29T12:15:57.566Z,24.10
2023-03-29T12:18:36.993Z,24.10
2023-03-29T12:21:31.055Z,24.30
2023-03-29T12:24:02.404Z,24.40
2023-03-29T12:27:01.480Z,24.20
2023-03-29T12:30:10.127Z,24.20
2023-03-29T12:32:56.382Z,24.20
2023-03-29T12:36:18.779Z,24.50
2023-03-29T12:38:52.763Z,24.40
2023-03-29T12:41:25.023Z,24.50
2023-03-29T12:44:02.640Z,23.40
2023-03-29T12:46:35.444Z,22.80
2023-03-29T12:49:31.463Z,22.70
2023-03-29T12:52:22.225Z,22.10
2023-03-29T12:55:02.887Z,22.30
2023-03-29T12:58:02.219Z,22.40
2023-03-29T13:00:42.328Z,22.10
2023-03-29T13:03:30.218Z,22.60
2023-03-29T13:06:05.430Z,21.70
2023-03-29T13:08:44.809Z,21.50
2023-03-29T13:11:34.948Z,21.70
2023-03-29T13:14:19.014Z,21.50
2023-03-29T13:16:50.229Z,21.60
2023-03-29T13:19:34.807Z,21.90
2023-03-29T13:22:36.658Z,22.30
2023-03-29T13:25:37.381Z,22.00
2023-03-29T13:28:56.529Z,22.70
2023-03-29T13:31:50.539Z,21.80
2023-03-29T13:34:38.384Z,21.90
2023-03-29T13:37:18.660Z,22.20
2023-03-29T13:39:54.122Z,22.30
2023-03-29T13:42:26.608Z,22.20
2023-03-29T13:45:28.825Z,21.60
2023-03-29T13:48:37.642Z,21.90
2023-03-29T13:51:14.400Z,22.50
2023-03-29T13:53:55.764Z,22.50
2023-03-29T13:56:35.112Z,22.70
2023-03-29T13:59:35.907Z,22.60
2023-03-29T14:02:07.622Z,21.30
2023-03-29T14:04:47.000Z,20.90
2023-03-29T14:07:21.294Z,19.70
2023-03-29T14:09:55.011Z,19.80
2023-03-29T14:12:33.131Z,19.30
2023-03-29T14:15:07.273Z,18.90
2023-03-29T14:17:38.625Z,19.10
2023-03-29T14:20:15.034Z,18.80
2023-03-29T14:22:46.623Z,19.70
2023-03-29T14:25:21.235Z,20.40
2023-03-29T14:27:52.118Z,20.70
2023-03-29T14:30:28.696Z,20.70
2023-03-29T14:33:05.111Z,20.60
2023-03-29T14:35:36.333Z,20.70
2023-03-29T14:38:12.615Z,20.80
2023-03-29T14:40:45.022Z,20.80
2023-03-29T14:43:22.475Z,20.90
2023-03-29T14:45:58.754Z,21.00
2023-03-29T14:48:33.255Z,21.10
2023-03-29T14:51:06.308Z,21.10
2023-03-29T14:53:39.088Z,21.20
2023-03-29T14:56:14.752Z,21.40
2023-03-29T14:58:49.436Z,21.70
2023-03-29T15:01:24.001Z,21.70
2023-03-29T15:04:05.601Z,21.60
2023-03-29T15:06:43.626Z,21.60
2023-03-29T15:09:32.870Z,21.60
2023-03-29T15:12:04.239Z,21.90
2023-03-29T15:14:40.901Z,21.90
2023-03-29T15:17:50.222Z,22.00
2023-03-29T15:20:29.656Z,21.60
2023-03-29T15:23:21.074Z,22.50
2023-03-29T15:26:07.447Z,22.10
2023-03-29T15:28:55.604Z,22.70
2023-03-29T15:31:35.316Z,22.60
2023-03-29T15:34:12.552Z,22.90
2023-03-29T15:36:46.487Z,22.80
2023-03-29T15:39:20.108Z,23.10
2023-03-29T15:41:53.758Z,22.90
2023-03-29T15:44:32.520Z,22.60
2023-03-29T15:47:03.958Z,23.20
2023-03-29T15:49:35.067Z,22.90
2023-03-29T15:52:06.390Z,22.80
2023-03-29T15:54:37.370Z,22.80
2023-03-29T15:57:13.980Z,22.90
2023-03-29T15:59:45.042Z,23.30
2023-03-29T16:02:17.496Z,23.50
2023-03-29T16:04:48.730Z,23.60
2023-03-29T16:07:21.057Z,23.30
2023-03-29T16:09:52.084Z,23.10
2023-03-29T16:12:23.785Z,23.30
2023-03-29T16:14:55.231Z,23.10
2023-03-29T16:17:26.109Z,22.80
2023-03-29T16:19:57.062Z,22.90
2023-03-29T16:22:29.446Z,22.80
2023-03-29T16:25:00.492Z,22.70
2023-03-29T16:27:32.836Z,22.50
2023-03-29T16:30:04.447Z,22.30
2023-03-29T16:32:35.848Z,22.30
2023-03-29T16:35:19.148Z,22.60
2023-03-29T16:37:50.147Z,22.10
2023-03-29T16:40:24.227Z,22.30
2023-03-29T16:42:55.321Z,22.50
2023-03-29T16:45:27.288Z,22.70
2023-03-29T16:47:58.727Z,22.90
2023-03-29T16:50:29.980Z,22.80
2023-03-29T16:53:01.074Z,22.50
2023-03-29T16:55:32.053Z,22.50
2023-03-29T16:58:03.627Z,22.40
2023-03-29T17:00:35.000Z,22.50
2023-03-29T17:03:06.780Z,22.20
2023-03-29T17:05:41.429Z,22.20
2023-03-29T17:08:12.560Z,22.30
2023-03-29T17:10:43.552Z,22.30
2023-03-29T17:13:14.450Z,22.40
2023-03-29T17:15:45.371Z,22.10
2023-03-29T17:18:16.336Z,22.00
2023-03-29T17:20:47.623Z,21.90
2023-03-29T17:23:19.214Z,21.90
2023-03-29T17:25:56.555Z,21.90
2023-03-29T17:28:34.555Z,21.90
2023-03-29T17:31:07.990Z,22.30
2023-03-29T17:33:38.953Z,22.10
2023-03-29T17:36:42.268Z,22.20
2023-03-29T17:39:21.667Z,21.90
2023-03-29T17:41:53.900Z,21.80
2023-03-29T17:44:24.818Z,21.90
2023-03-29T17:46:55.908Z,21.80
2023-03-29T17:49:26.909Z,21.90
2023-03-29T17:51:58.024Z,21.80
2023-03-29T17:54:29.105Z,21.50
2023-03-29T17:57:00.230Z,21.40
2023-03-29T17:59:31.198Z,21.50
2023-03-29T18:02:05.354Z,21.50
2023-03-29T18:04:36.407Z,21.20
2023-03-29T18:07:07.356Z,21.20
2023-03-29T18:09:38.384Z,21.20
2023-03-29T18:12:09.985Z,21.30
2023-03-29T18:14:40.921Z,21.20
2023-03-29T18:17:11.929Z,21.30
2023-03-29T18:19:42.923Z,21.30
2023-03-29T18:22:13.935Z,21.30
2023-03-29T18:24:44.857Z,21.30
2023-03-29T18:27:16.094Z,21.30
2023-03-29T18:29:47.132Z,21.50
2023-03-29T18:32:18.105Z,21.00
2023-03-29T18:34:49.091Z,21.10
2023-03-29T18:37:19.956Z,20.70
2023-03-29T18:39:50.828Z,20.70
2023-03-29T18:42:21.961Z,20.90
2023-03-29T18:44:52.833Z,21.00
2023-03-29T18:47:23.914Z,21.00
2023-03-29T18:49:54.866Z,21.10
2023-03-29T18:52:25.788Z,21.20
2023-03-29T18:54:56.740Z,21.00
2023-03-29T18:57:27.806Z,20.60
2023-03-29T18:59:58.769Z,20.60
2023-03-29T19:02:29.743Z,20.90
2023-03-29T19:05:00.707Z,20.40
2023-03-29T19:07:31.621Z,21.00
2023-03-29T19:10:04.180Z,20.70
2023-03-29T19:12:35.770Z,20.90
2023-03-29T19:15:08.003Z,21.00
2023-03-29T19:17:38.962Z,21.30
2023-03-29T19:20:11.234Z,21.40
2023-03-29T19:22:42.204Z,21.40
2023-03-29T19:25:13.199Z,21.50
2023-03-29T19:27:44.148Z,21.20
2023-03-29T19:30:15.515Z,21.40
2023-03-29T19:32:46.902Z,21.30
2023-03-29T19:35:18.390Z,21.20
2023-03-29T19:37:49.299Z,21.10
2023-03-29T19:40:20.997Z,21.10
2023-03-29T19:42:51.871Z,21.00
2023-03-29T19:45:23.436Z,21.00
2023-03-29T19:48:02.866Z,21.00
2023-03-29T19:50:39.580Z,20.90
2023-03-29T19:53:11.782Z,20.80
2023-03-29T19:55:45.281Z,21.10
2023-03-29T19:58:16.497Z,21.40
2023-03-29T20:00:47.424Z,21.20
2023-03-29T20:03:18.380Z,21.00
2023-03-29T20:05:49.519Z,20.70
2023-03-29T20:08:20.548Z,20.70
2023-03-29T20:11:07.369Z,20.40
2023-03-29T20:13:41.524Z,20.60
2023-03-29T20:16:15.941Z,20.30
2023-03-29T20:18:46.912Z,20.20
2023-03-29T20:21:18.350Z,20.00
2023-03-29T20:23:49.240Z,20.30
2023-03-29T20:26:20.189Z,20.30
2023-03-29T20:28:51.604Z,20.20
2023-03-29T20:31:22.920Z,20.40
2023-03-29T20:33:53.858Z,20.40
2023-03-29T20:36:26.679Z,20.50
2023-03-29T20:38:59.322Z,20.40
2023-03-29T20:41:31.512Z,20.50
2023-03-29T20:44:04.053Z,20.60
2023-03-29T20:46:34.981Z,20.70
2023-03-29T20:49:10.215Z,20.60
2023-03-29T20:51:42.530Z,20.80
2023-03-29T20:54:13.468Z,20.70
2023-03-29T20:56:44.623Z,20.70
2023-03-29T20:59:15.556Z,20.70
2023-03-29T21:01:47.154Z,20.70
2023-03-29T21:04:18.529Z,20.70
2023-03-29T21:06:49.755Z,20.70
2023-03-29T21:09:23.504Z,20.90
2023-03-29T21:11:54.421Z,20.90
2023-03-29T21:14:26.722Z,21.10
2023-03-29T21:16:57.844Z,21.00
2023-03-29T21:19:29.115Z,21.00
2023-03-29T21:22:00.046Z,21.20
2023-03-29T21:24:32.804Z,21.10
2023-03-29T21:27:03.902Z,21.10
2023-03-29T21:29:34.802Z,20.90
2023-03-29T21:32:05.829Z,20.90
2023-03-29T21:34:36.808Z,20.90
2023-03-29T21:37:07.743Z,20.90
2023-03-29T21:39:38.683Z,21.00
2023-03-29T21:42:09.569Z,21.10
2023-03-29T21:44:40.540Z,21.00
2023-03-29T21:47:11.550Z,20.90
2023-03-29T21:49:42.407Z,21.00
2023-03-29T21:52:13.310Z,21.10
2023-03-29T21:54:44.256Z,21.10
2023-03-29T21:57:15.313Z,21.10
2023-03-29T21:59:46.361Z,21.00
2023-03-29T22:02:17.517Z,21.20
2023-03-29T22:04:48.574Z,21.20
2023-03-29T22:07:22.784Z,21.20
2023-03-29T22:09:54.773Z,21.40
2023-03-29T22:12:27.080Z,21.10
2023-03-29T22:14:57.989Z,21.60
2023-03-29T22:17:29.077Z,21.60
2023-03-29T22:20:01.418Z,21.60
2023-03-29T22:22:32.279Z,21.50
2023-03-29T22:25:03.685Z,21.40
2023-03-29T22:27:34.566Z,21.60
2023-03-29T22:30:06.914Z,21.80
2023-03-29T22:32:38.061Z,21.70
2023-03-29T22:35:10.020Z,21.90
2023-03-29T22:37:43.915Z,21.70
2023-03-29T22:40:14.983Z,21.70
2023-03-29T22:42:46.116Z,22.00
2023-03-29T22:45:17.107Z,21.70
2023-03-29T22:47:48.059Z,21.70
2023-03-29T22:50:18.926Z,21.20
2023-03-29T22:52:49.805Z,21.80
2023-03-29T22:55:20.790Z,21.90
2023-03-29T22:57:51.692Z,21.50
2023-03-29T23:00:23.135Z,21.30
2023-03-29T23:02:54.401Z,20.80
2023-03-29T23:05:25.382Z,20.80
2023-03-29T23:07:56.298Z,21.30
2023-03-29T23:10:30.466Z,21.10
2023-03-29T23:13:13.595Z,21.00
2023-03-29T23:15:48.429Z,21.50
2023-03-29T23:18:21.185Z,21.40
2023-03-29T23:20:57.552Z,21.70
2023-03-29T23:23:28.985Z,21.40
2023-03-29T23:26:00.020Z,21.30
2023-03-29T23:28:31.710Z,21.20
2023-03-29T23:31:06.952Z,21.20
2023-03-29T23:33:41.362Z,21.70
2023-03-29T23:36:16.092Z,21.70
2023-03-29T23:38:47.975Z,22.20
2023-03-29T23:41:20.191Z,21.70
2023-03-29T23:43:52.345Z,21.40
2023-03-29T23:46:23.251Z,21.70
2023-03-29T23:48:54.199Z,21.50
2023-03-29T23:51:28.299Z,21.30
2023-03-29T23:53:59.290Z,21.50
2023-03-29T23:56:30.318Z,21.80
2023-03-29T23:59:01.568Z,22.40
